createdAt,value
2023-02-11T00:00:42.565Z,95.92
2023-02-11T00:03:09.292Z,96.00
2023-02-11T00:05:35.736Z,95.95
2023-02-11T00:08:02.163Z,95.93
2023-02-11T00:10:28.669Z,95.99
2023-02-11T00:12:55.166Z,95.85
2023-02-11T00:15:21.626Z,96.13
2023-02-11T00:17:48.072Z,96.07
2023-02-11T00:20:14.828Z,95.88
2023-02-11T00:22:41.557Z,96.25
2023-02-11T00:25:08.276Z,96.03
2023-02-11T00:27:36.328Z,96.00
2023-02-11T00:30:02.903Z,96.18
2023-02-11T00:32:29.378Z,96.17
2023-02-11T00:34:55.867Z,96.42
2023-02-11T00:37:22.777Z,96.29
2023-02-11T00:39:50.186Z,96.24
2023-02-11T00:42:16.954Z,96.23
2023-02-11T00:44:43.390Z,96.54
2023-02-11T00:47:09.883Z,96.30
2023-02-11T00:49:37.002Z,96.64
2023-02-11T00:52:03.902Z,96.81
2023-02-11T00:54:30.307Z,96.58
2023-02-11T00:56:56.711Z,96.57
2023-02-11T00:59:23.151Z,96.38
2023-02-11T01:01:49.650Z,96.72
2023-02-11T01:04:16.150Z,96.94
2023-02-11T01:06:42.564Z,96.89
2023-02-11T01:09:09.078Z,96.91
2023-02-11T01:11:35.806Z,97.04
2023-02-11T01:14:02.750Z,96.91
2023-02-11T01:16:29.219Z,97.02
2023-02-11T01:18:55.742Z,97.26
2023-02-11T01:21:22.338Z,97.07
2023-02-11T01:23:48.741Z,97.51
2023-02-11T01:26:15.165Z,97.45
2023-02-11T01:28:41.649Z,97.27
2023-02-11T01:31:08.332Z,97.65
2023-02-11T01:33:34.809Z,97.50
2023-02-11T01:36:03.116Z,97.49
2023-02-11T01:38:30.112Z,97.85
2023-02-11T01:40:59.523Z,97.66
2023-02-11T01:43:28.313Z,97.98
2023-02-11T01:46:04.407Z,98.18
2023-02-11T01:48:41.542Z,98.19
2023-02-11T01:51:26.421Z,98.07
2023-02-11T01:54:12.340Z,97.84
2023-02-11T01:57:04.127Z,98.05
2023-02-11T01:59:38.232Z,97.91
2023-02-11T02:02:09.451Z,98.06
2023-02-11T02:04:45.177Z,98.26
2023-02-11T02:07:17.833Z,98.32
2023-02-11T02:09:49.348Z,97.89
2023-02-11T02:12:16.000Z,98.22
2023-02-11T02:14:42.599Z,98.21
2023-02-11T02:17:33.563Z,98.08
2023-02-11T02:20:47.989Z,98.10
2023-02-11T02:23:28.471Z,98.21
2023-02-11T02:26:03.878Z,98.01
2023-02-11T02:28:33.057Z,98.19
2023-02-11T02:31:24.017Z,98.27
2023-02-11T02:34:05.255Z,98.32
2023-02-11T02:36:41.304Z,98.13
2023-02-11T02:39:22.171Z,98.24
2023-02-11T02:41:50.847Z,98.41
2023-02-11T02:44:18.990Z,98.54
2023-02-11T02:46:45.957Z,98.60
2023-02-11T02:49:14.470Z,98.73
2023-02-11T02:52:02.258Z,98.72
2023-02-11T02:55:04.339Z,98.48
2023-02-11T02:57:47.848Z,98.76
2023-02-11T03:00:29.779Z,99.18
2023-02-11T03:03:02.314Z,99.11
2023-02-11T03:05:47.694Z,98.71
2023-02-11T03:08:23.365Z,99.36
2023-02-11T03:10:53.304Z,99.38
2023-02-11T03:13:23.017Z,99.40
2023-02-11T03:15:54.189Z,99.04
2023-02-11T03:18:24.624Z,99.48
2023-02-11T03:20:54.372Z,99.01
2023-02-11T03:23:32.888Z,99.31
2023-02-11T03:26:25.656Z,99.33
2023-02-11T03:29:03.997Z,99.86
2023-02-11T03:31:47.727Z,99.73
2023-02-11T03:34:37.891Z,100.00
2023-02-11T03:37:25.525Z,99.96
2023-02-11T03:39:58.499Z,100.00
2023-02-11T03:42:28.803Z,100.00
2023-02-11T03:45:22.888Z,100.00
2023-02-11T03:47:55.621Z,100.00
2023-02-11T03:50:23.532Z,100.00
2023-02-11T03:52:50.952Z,100.00
2023-02-11T03:55:20.918Z,100.00
2023-02-11T03:57:48.302Z,100.00
2023-02-11T04:00:15.441Z,100.00
2023-02-11T04:02:43.084Z,100.00
2023-02-11T04:05:12.338Z,100.00
2023-02-11T04:07:38.752Z,100.00
2023-02-11T04:10:05.640Z,100.00
2023-02-11T04:12:32.108Z,100.00
2023-02-11T04:14:58.734Z,100.00
2023-02-11T04:17:25.200Z,100.00
2023-02-11T04:19:51.683Z,100.00
2023-02-11T04:22:18.091Z,100.00
2023-02-11T04:24:44.494Z,100.00
2023-02-11T04:27:11.028Z,100.00
2023-02-11T04:29:37.725Z,100.00
2023-02-11T04:32:04.462Z,100.00
2023-02-11T04:34:31.346Z,100.00
2023-02-11T04:36:57.835Z,100.00
2023-02-11T04:39:24.384Z,100.00
2023-02-11T04:41:50.883Z,100.00
2023-02-11T04:44:17.325Z,100.00
2023-02-11T04:46:43.727Z,100.00
2023-02-11T04:49:13.746Z,100.00
2023-02-11T04:51:40.642Z,100.00
2023-02-11T04:54:07.619Z,100.00
2023-02-11T04:56:34.758Z,100.00
2023-02-11T04:59:01.235Z,100.00
2023-02-11T05:01:27.837Z,100.00
2023-02-11T05:03:54.412Z,100.00
2023-02-11T05:06:20.879Z,100.00
2023-02-11T05:08:47.794Z,100.00
2023-02-11T05:11:23.046Z,100.00
2023-02-11T05:13:49.524Z,100.00
2023-02-11T05:16:17.042Z,100.00
2023-02-11T05:18:44.852Z,100.00
2023-02-11T05:21:18.406Z,100.00
2023-02-11T05:23:45.769Z,100.00
2023-02-11T05:26:12.737Z,100.00
2023-02-11T05:28:39.629Z,100.00
2023-02-11T05:31:06.160Z,100.00
2023-02-11T05:33:32.744Z,100.00
2023-02-11T05:36:04.621Z,100.00
2023-02-11T05:38:31.088Z,100.00
2023-02-11T05:40:57.540Z,100.00
2023-02-11T05:43:24.000Z,100.00
2023-02-11T05:45:50.852Z,100.00
2023-02-11T05:48:17.868Z,100.00
2023-02-11T05:50:44.561Z,100.00
2023-02-11T05:53:11.701Z,100.00
2023-02-11T05:55:38.556Z,100.00
2023-02-11T05:58:07.920Z,100.00
2023-02-11T06:00:35.002Z,100.00
2023-02-11T06:03:01.827Z,100.00
2023-02-11T06:05:28.251Z,100.00
2023-02-11T06:07:54.668Z,100.00
2023-02-11T06:10:21.441Z,100.00
2023-02-11T06:12:48.095Z,100.00
2023-02-11T06:15:14.578Z,100.00
2023-02-11T06:17:41.058Z,100.00
2023-02-11T06:20:08.694Z,100.00
2023-02-11T06:22:35.284Z,100.00
2023-02-11T06:25:02.451Z,100.00
2023-02-11T06:27:29.552Z,100.00
2023-02-11T06:29:56.329Z,100.00
2023-02-11T06:32:42.850Z,100.00
2023-02-11T06:35:11.753Z,100.00
2023-02-11T06:37:38.873Z,100.00
2023-02-11T06:40:05.719Z,100.00
2023-02-11T06:42:32.385Z,100.00
2023-02-11T06:44:58.807Z,100.00
2023-02-11T06:47:25.296Z,100.00
2023-02-11T06:49:52.017Z,100.00
2023-02-11T06:52:18.435Z,100.00
2023-02-11T06:54:44.831Z,100.00
2023-02-11T06:57:11.316Z,100.00
2023-02-11T06:59:37.741Z,100.00
2023-02-11T07:02:04.350Z,100.00
2023-02-11T07:04:30.876Z,100.00
2023-02-11T07:06:57.266Z,100.00
2023-02-11T07:09:23.694Z,100.00
2023-02-11T07:11:50.286Z,100.00
2023-02-11T07:14:17.016Z,100.00
2023-02-11T07:16:43.557Z,100.00
2023-02-11T07:19:10.452Z,100.00
2023-02-11T07:21:36.874Z,100.00
2023-02-11T07:24:09.664Z,100.00
2023-02-11T07:26:37.461Z,100.00
2023-02-11T07:29:03.885Z,100.00
2023-02-11T07:31:31.275Z,100.00
2023-02-11T07:34:00.135Z,100.00
2023-02-11T07:36:28.368Z,100.00
2023-02-11T07:38:54.900Z,100.00
2023-02-11T07:41:23.425Z,100.00
2023-02-11T07:43:50.936Z,100.00
2023-02-11T07:46:26.304Z,100.00
2023-02-11T07:48:53.557Z,100.00
2023-02-11T07:51:25.939Z,100.00
2023-02-11T07:53:53.401Z,100.00
2023-02-11T07:56:20.632Z,100.00
2023-02-11T07:58:47.892Z,100.00
2023-02-11T08:01:22.043Z,100.00
2023-02-11T08:03:51.348Z,100.00
2023-02-11T08:06:20.404Z,100.00
2023-02-11T08:08:47.276Z,100.00
2023-02-11T08:11:25.967Z,100.00
2023-02-11T08:13:53.786Z,100.00
2023-02-11T08:16:26.528Z,100.00
2023-02-11T08:18:55.424Z,100.00
2023-02-11T08:21:21.966Z,100.00
2023-02-11T08:23:49.926Z,100.00
2023-02-11T08:26:22.403Z,100.00
2023-02-11T08:28:51.378Z,100.00
2023-02-11T08:31:24.333Z,100.00
2023-02-11T08:33:51.373Z,100.00
2023-02-11T08:36:20.677Z,100.00
2023-02-11T08:38:47.591Z,100.00
2023-02-11T08:41:14.972Z,100.00
2023-02-11T08:43:42.786Z,100.00
2023-02-11T08:46:13.436Z,100.00
2023-02-11T08:48:39.910Z,100.00
2023-02-11T08:51:13.762Z,100.00
2023-02-11T08:53:40.424Z,100.00
2023-02-11T08:56:06.984Z,100.00
2023-02-11T08:58:33.663Z,100.00
2023-02-11T09:01:00.306Z,100.00
2023-02-11T09:03:27.039Z,100.00
2023-02-11T09:05:53.692Z,100.00
2023-02-11T09:08:20.964Z,100.00
2023-02-11T09:10:47.434Z,100.00
2023-02-11T09:13:13.933Z,100.00
2023-02-11T09:15:40.434Z,100.00
2023-02-11T09:18:07.534Z,100.00
2023-02-11T09:20:34.220Z,100.00
2023-02-11T09:23:00.796Z,100.00
2023-02-11T09:25:27.508Z,100.00
2023-02-11T09:27:54.036Z,100.00
2023-02-11T09:30:21.031Z,100.00
2023-02-11T09:32:47.524Z,100.00
2023-02-11T09:35:14.041Z,100.00
2023-02-11T09:37:40.597Z,100.00
2023-02-11T09:40:07.553Z,100.00
2023-02-11T09:42:53.022Z,100.00
2023-02-11T09:45:24.038Z,100.00
2023-02-11T09:48:12.664Z,100.00
2023-02-11T09:50:43.308Z,100.00
2023-02-11T09:53:20.739Z,100.00
2023-02-11T09:55:55.662Z,99.90
2023-02-11T09:58:30.747Z,100.00
2023-02-11T10:01:04.732Z,99.85
2023-02-11T10:03:46.109Z,99.74
2023-02-11T10:06:19.999Z,99.08
2023-02-11T10:09:12.799Z,99.56
2023-02-11T10:12:04.509Z,99.11
2023-02-11T10:15:16.266Z,99.42
2023-02-11T10:18:14.792Z,98.72
2023-02-11T10:20:50.508Z,98.17
2023-02-11T10:23:22.366Z,98.40
2023-02-11T10:25:54.433Z,98.47
2023-02-11T10:28:24.904Z,97.55
2023-02-11T10:31:11.712Z,98.03
2023-02-11T10:33:46.603Z,97.48
2023-02-11T10:36:15.097Z,96.38
2023-02-11T10:38:41.639Z,95.58
2023-02-11T10:41:13.396Z,95.76
2023-02-11T10:43:42.343Z,95.65
2023-02-11T10:46:18.274Z,95.91
2023-02-11T10:48:51.625Z,95.27
2023-02-11T10:51:34.097Z,95.19
2023-02-11T10:54:08.249Z,95.16
2023-02-11T10:56:37.349Z,95.31
2023-02-11T10:59:28.086Z,94.69
2023-02-11T11:02:00.569Z,94.15
2023-02-11T11:04:30.469Z,94.06
2023-02-11T11:07:16.890Z,94.23
2023-02-11T11:10:05.994Z,95.02
2023-02-11T11:12:36.626Z,94.05
2023-02-11T11:15:21.730Z,93.32
2023-02-11T11:18:20.915Z,92.82
2023-02-11T11:21:22.893Z,92.79
2023-02-11T11:23:56.463Z,91.73
2023-02-11T11:26:24.519Z,92.02
2023-02-11T11:28:53.506Z,91.28
2023-02-11T11:31:30.754Z,91.71
2023-02-11T11:33:59.744Z,91.60
2023-02-11T11:36:36.240Z,91.32
2023-02-11T11:39:22.196Z,91.41
2023-02-11T11:41:59.845Z,90.28
2023-02-11T11:44:32.336Z,89.65
2023-02-11T11:47:11.073Z,88.74
2023-02-11T11:49:43.536Z,89.42
2023-02-11T11:52:32.967Z,89.39
2023-02-11T11:55:07.857Z,89.19
2023-02-11T11:57:38.779Z,89.19
2023-02-11T12:00:14.628Z,89.04
2023-02-11T12:02:47.290Z,89.55
2023-02-11T12:05:42.355Z,89.46
2023-02-11T12:08:16.154Z,89.58
2023-02-11T12:10:58.600Z,89.33
2023-02-11T12:13:48.087Z,88.71
2023-02-11T12:16:42.227Z,88.66
2023-02-11T12:19:30.251Z,88.06
2023-02-11T12:22:03.500Z,88.05
2023-02-11T12:24:53.290Z,87.61
2023-02-11T12:27:41.103Z,86.97
2023-02-11T12:30:30.648Z,86.76
2023-02-11T12:33:40.351Z,86.20
2023-02-11T12:36:22.426Z,84.77
2023-02-11T12:39:06.358Z,84.88
2023-02-11T12:42:00.228Z,84.44
2023-02-11T12:44:44.734Z,83.64
2023-02-11T12:47:52.788Z,83.54
2023-02-11T12:50:56.895Z,82.33
2023-02-11T12:53:37.936Z,82.31
2023-02-11T12:56:29.283Z,82.13
2023-02-11T12:58:59.011Z,82.12
2023-02-11T13:01:39.877Z,81.68
2023-02-11T13:04:12.935Z,82.45
2023-02-11T13:06:48.497Z,82.27
2023-02-11T13:09:21.946Z,82.15
2023-02-11T13:11:53.702Z,82.51
2023-02-11T13:14:35.517Z,81.51
2023-02-11T13:17:11.134Z,81.46
2023-02-11T13:19:44.187Z,81.81
2023-02-11T13:22:20.044Z,81.29
2023-02-11T13:25:17.553Z,81.47
2023-02-11T13:27:48.092Z,81.74
2023-02-11T13:30:29.317Z,81.23
2023-02-11T13:32:55.785Z,81.40
2023-02-11T13:35:40.249Z,80.78
2023-02-11T13:38:19.171Z,81.12
2023-02-11T13:40:48.203Z,80.85
2023-02-11T13:43:25.535Z,80.49
2023-02-11T13:45:57.643Z,80.65
2023-02-11T13:48:52.704Z,81.31
2023-02-11T13:51:38.274Z,80.92
2023-02-11T13:54:06.283Z,80.87
2023-02-11T13:56:42.718Z,80.73
2023-02-11T13:59:27.574Z,81.26
2023-02-11T14:02:14.019Z,81.06
2023-02-11T14:05:31.725Z,81.41
2023-02-11T14:08:29.103Z,81.79
2023-02-11T14:11:12.344Z,81.66
2023-02-11T14:13:47.939Z,82.15
2023-02-11T14:16:28.194Z,82.07
2023-02-11T14:19:02.523Z,81.83
2023-02-11T14:21:32.370Z,82.21
2023-02-11T14:24:01.895Z,81.78
2023-02-11T14:26:49.982Z,82.22
2023-02-11T14:29:50.934Z,82.10
2023-02-11T14:32:34.965Z,81.69
2023-02-11T14:35:07.721Z,81.92
2023-02-11T14:38:04.194Z,81.72
2023-02-11T14:40:45.877Z,82.03
2023-02-11T14:43:16.941Z,81.95
2023-02-11T14:45:48.027Z,81.15
2023-02-11T14:48:16.972Z,80.77
2023-02-11T14:50:48.485Z,81.36
2023-02-11T14:53:24.007Z,81.64
2023-02-11T14:55:53.404Z,81.08
2023-02-11T14:58:21.211Z,81.52
2023-02-11T15:00:53.798Z,81.36
2023-02-11T15:03:30.292Z,81.19
2023-02-11T15:06:22.329Z,81.42
2023-02-11T15:08:53.300Z,81.49
2023-02-11T15:11:22.348Z,81.61
2023-02-11T15:13:50.445Z,82.00
2023-02-11T15:16:21.531Z,82.26
2023-02-11T15:18:51.773Z,82.42
2023-02-11T15:21:29.920Z,82.36
2023-02-11T15:24:06.459Z,82.18
2023-02-11T15:26:33.421Z,82.23
2023-02-11T15:29:00.141Z,82.64
2023-02-11T15:31:28.137Z,82.41
2023-02-11T15:33:55.162Z,82.69
2023-02-11T15:36:28.683Z,82.55
2023-02-11T15:39:32.724Z,82.69
2023-02-11T15:42:22.603Z,83.07
2023-02-11T15:45:07.079Z,83.09
2023-02-11T15:47:33.687Z,83.50
2023-02-11T15:50:00.185Z,83.07
2023-02-11T15:52:28.174Z,83.57
2023-02-11T15:55:00.642Z,83.49
2023-02-11T15:57:27.444Z,84.00
2023-02-11T15:59:56.275Z,84.26
2023-02-11T16:02:34.177Z,84.40
2023-02-11T16:05:04.700Z,84.03
2023-02-11T16:07:49.977Z,84.66
2023-02-11T16:10:24.429Z,84.67
2023-02-11T16:13:01.827Z,85.13
2023-02-11T16:15:34.319Z,84.64
2023-02-11T16:18:04.313Z,84.98
2023-02-11T16:20:31.120Z,84.94
2023-02-11T16:22:57.688Z,84.63
2023-02-11T16:25:24.159Z,85.01
2023-02-11T16:27:54.572Z,85.55
2023-02-11T16:30:32.855Z,85.83
2023-02-11T16:32:59.316Z,86.01
2023-02-11T16:35:25.794Z,86.16
2023-02-11T16:37:52.306Z,85.75
2023-02-11T16:40:18.967Z,85.80
2023-02-11T16:42:45.365Z,85.74
2023-02-11T16:45:12.219Z,86.12
2023-02-11T16:47:42.587Z,85.87
2023-02-11T16:50:11.781Z,85.99
2023-02-11T16:52:38.313Z,85.85
2023-02-11T16:55:07.194Z,86.03
2023-02-11T16:57:33.622Z,85.79
2023-02-11T17:00:00.186Z,86.32
2023-02-11T17:02:33.523Z,85.72
2023-02-11T17:05:02.596Z,86.60
2023-02-11T17:07:29.648Z,86.65
2023-02-11T17:09:56.625Z,86.20
2023-02-11T17:12:25.405Z,86.17
2023-02-11T17:14:52.885Z,86.08
2023-02-11T17:17:19.432Z,86.21
2023-02-11T17:19:47.775Z,86.92
2023-02-11T17:22:14.281Z,86.19
2023-02-11T17:24:40.702Z,86.88
2023-02-11T17:27:07.141Z,86.43
2023-02-11T17:29:33.647Z,87.06
2023-02-11T17:32:00.333Z,87.25
2023-02-11T17:34:29.207Z,87.31
2023-02-11T17:36:55.970Z,87.71
2023-02-11T17:39:22.498Z,87.91
2023-02-11T17:41:48.990Z,87.30
2023-02-11T17:44:16.479Z,87.65
2023-02-11T17:46:43.582Z,87.72
2023-02-11T17:49:12.097Z,87.66
2023-02-11T17:51:39.607Z,88.27
2023-02-11T17:54:12.191Z,87.90
2023-02-11T17:56:39.193Z,88.17
2023-02-11T17:59:08.308Z,87.70
2023-02-11T18:01:36.191Z,88.42
2023-02-11T18:04:03.369Z,87.98
2023-02-11T18:06:30.320Z,88.40
2023-02-11T18:08:59.672Z,88.64
2023-02-11T18:11:26.251Z,88.43
2023-02-11T18:13:54.556Z,89.18
2023-02-11T18:16:23.011Z,89.02
2023-02-11T18:18:51.117Z,88.51
2023-02-11T18:21:20.141Z,88.88
2023-02-11T18:23:47.324Z,89.06
2023-02-11T18:26:15.752Z,89.34
2023-02-11T18:28:45.361Z,89.07
2023-02-11T18:31:13.853Z,88.72
2023-02-11T18:33:41.673Z,88.97
2023-02-11T18:36:11.159Z,89.06
2023-02-11T18:38:38.181Z,89.06
2023-02-11T18:41:04.817Z,89.41
2023-02-11T18:43:33.783Z,89.45
2023-02-11T18:46:02.130Z,88.63
2023-02-11T18:48:29.021Z,89.28
2023-02-11T18:50:56.224Z,89.21
2023-02-11T18:53:23.634Z,89.18
2023-02-11T18:55:52.621Z,89.25
2023-02-11T18:58:21.154Z,89.36
2023-02-11T19:00:48.406Z,88.98
2023-02-11T19:03:15.097Z,89.22
2023-02-11T19:05:49.562Z,89.06
2023-02-11T19:08:17.165Z,89.09
2023-02-11T19:10:45.852Z,88.91
2023-02-11T19:13:13.181Z,89.44
2023-02-11T19:15:44.452Z,89.31
2023-02-11T19:18:12.625Z,88.98
2023-02-11T19:20:40.934Z,89.31
2023-02-11T19:23:07.723Z,89.42
2023-02-11T19:25:34.637Z,89.34
2023-02-11T19:28:01.447Z,89.17
2023-02-11T19:30:28.096Z,89.37
2023-02-11T19:32:57.126Z,89.12
2023-02-11T19:35:24.904Z,89.33
2023-02-11T19:37:51.523Z,89.93
2023-02-11T19:40:18.084Z,89.13
2023-02-11T19:42:44.582Z,89.11
2023-02-11T19:45:11.064Z,89.44
2023-02-11T19:47:37.528Z,89.16
2023-02-11T19:50:05.913Z,88.74
2023-02-11T19:52:32.504Z,89.29
2023-02-11T19:55:00.001Z,89.34
2023-02-11T19:57:26.652Z,89.84
2023-02-11T19:59:54.850Z,89.60
2023-02-11T20:02:21.391Z,89.38
2023-02-11T20:04:48.080Z,89.67
2023-02-11T20:07:14.653Z,89.12
2023-02-11T20:09:42.456Z,89.25
2023-02-11T20:12:09.200Z,89.82
2023-02-11T20:14:35.681Z,89.52
2023-02-11T20:17:02.520Z,89.00
2023-02-11T20:19:30.610Z,89.91
2023-02-11T20:21:57.162Z,89.27
2023-02-11T20:24:24.579Z,89.92
2023-02-11T20:26:55.533Z,89.82
2023-02-11T20:29:23.599Z,90.14
2023-02-11T20:31:51.134Z,89.74
2023-02-11T20:34:18.120Z,89.40
2023-02-11T20:36:51.457Z,89.83
2023-02-11T20:39:18.926Z,89.38
2023-02-11T20:41:46.251Z,89.65
2023-02-11T20:44:13.185Z,90.16
2023-02-11T20:46:46.524Z,89.87
2023-02-11T20:49:15.432Z,89.82
2023-02-11T20:51:42.332Z,90.10
2023-02-11T20:54:13.012Z,89.72
2023-02-11T20:56:39.599Z,89.98
2023-02-11T20:59:06.795Z,89.95
2023-02-11T21:01:36.136Z,89.90
2023-02-11T21:04:10.256Z,90.14
2023-02-11T21:06:39.974Z,90.09
2023-02-11T21:09:09.367Z,90.46
2023-02-11T21:11:36.094Z,90.40
2023-02-11T21:14:03.300Z,90.75
2023-02-11T21:16:30.067Z,90.31
2023-02-11T21:18:56.890Z,89.82
2023-02-11T21:21:23.837Z,90.46
2023-02-11T21:23:50.275Z,90.62
2023-02-11T21:26:19.673Z,90.42
2023-02-11T21:28:46.196Z,90.70
2023-02-11T21:31:30.753Z,90.78
2023-02-11T21:33:59.527Z,91.03
2023-02-11T21:36:28.017Z,90.05
2023-02-11T21:38:54.690Z,90.28
2023-02-11T21:41:22.555Z,91.06
2023-02-11T21:43:49.993Z,90.73
2023-02-11T21:46:17.756Z,90.39
2023-02-11T21:48:44.370Z,90.52
2023-02-11T21:51:17.290Z,91.04
2023-02-11T21:53:44.122Z,90.75
2023-02-11T21:56:14.299Z,91.20
2023-02-11T21:58:40.916Z,91.12
2023-02-11T22:01:17.049Z,91.07
2023-02-11T22:03:44.531Z,91.22
2023-02-11T22:06:13.901Z,91.24
2023-02-11T22:08:40.779Z,90.76
2023-02-11T22:11:10.607Z,91.15
2023-02-11T22:13:37.266Z,90.54
2023-02-11T22:16:06.359Z,90.89
2023-02-11T22:18:33.021Z,90.77
2023-02-11T22:21:01.729Z,90.77
2023-02-11T22:23:29.229Z,90.78
2023-02-11T22:25:56.138Z,91.52
2023-02-11T22:28:23.429Z,91.21
2023-02-11T22:30:55.053Z,90.91
2023-02-11T22:33:22.518Z,91.32
2023-02-11T22:35:49.011Z,91.30
2023-02-11T22:38:15.497Z,91.50
2023-02-11T22:40:43.360Z,91.21
2023-02-11T22:43:10.582Z,91.72
2023-02-11T22:45:37.063Z,91.85
2023-02-11T22:48:03.689Z,91.45
2023-02-11T22:50:30.571Z,90.98
2023-02-11T22:52:57.339Z,91.50
2023-02-11T22:55:23.757Z,91.51
2023-02-11T22:57:50.174Z,91.90
2023-02-11T23:00:17.764Z,91.46
2023-02-11T23:02:44.222Z,91.68
2023-02-11T23:05:10.707Z,91.72
2023-02-11T23:07:37.198Z,92.39
2023-02-11T23:10:04.109Z,91.64
2023-02-11T23:12:30.603Z,91.92
2023-02-11T23:14:56.998Z,91.73
2023-02-11T23:17:24.572Z,92.24
2023-02-11T23:19:51.152Z,91.67
2023-02-11T23:22:17.720Z,92.23
2023-02-11T23:24:44.174Z,92.10
2023-02-11T23:27:10.658Z,92.21
2023-02-11T23:29:37.087Z,92.33
2023-02-11T23:32:03.727Z,92.09
2023-02-11T23:34:30.213Z,92.31
2023-02-11T23:36:59.126Z,92.29
2023-02-11T23:39:26.172Z,92.46
2023-02-11T23:41:58.852Z,92.51
2023-02-11T23:44:26.850Z,92.57
2023-02-11T23:46:53.441Z,92.30
2023-02-11T23:49:19.946Z,92.55
2023-02-11T23:51:46.515Z,92.75
2023-02-11T23:54:14.176Z,92.60
2023-02-11T23:56:42.683Z,92.54
2023-02-11T23:59:09.413Z,92.23
